Pagina principale
METAR-TAF:

METAR-TAF

Aeroporti :

Seyresse

Dax, Francia

latitudine: 43-41N, longitudine: 001-04W, altezza: 32 m

Osservazione

Il bollettino è stato emesso 26 minuti fa, alle 05:00 UTC
Vento 3 kt da direzioni variabili
Temperature 3°C
Umidità 75%
Pressione 1020 hPa
Visibilità 10 km o più

METAR: LFBY 300500Z AUTO VRB03KT 9999 // ////// 03/M01 Q1020

Ora: 07:26 (05:26 UTC)


TAF: mancante

Osservazioni e previsioni meteorologiche di più di 4000 aeroporti (messaggi METAR e TAF).

Le stazioni disponibili sono rappresentate dai dischi gialli e rossi sulla carta.

Puntare il mouse per vedere il nome della stazione.

Clicca sopra per visualizzare le osservazioni e previsioni meteorologiche.

Per cambiare la mappa : fare clic sui pulsanti verdi con una croce nera per ingrandire, il pulsante verde con un trattino per diminuire, o sulla freccia verde per le mappe adiacenti.


METAR-TAF: